createdAt,value
2023-03-08T00:00:15.231Z,5.95
2023-03-08T00:02:41.959Z,8.65
2023-03-08T00:05:09.229Z,8.68
2023-03-08T00:07:37.328Z,9.70
2023-03-08T00:10:05.640Z,9.57
2023-03-08T00:12:32.323Z,11.00
2023-03-08T00:14:59.089Z,11.45
2023-03-08T00:17:26.317Z,14.63
2023-03-08T00:19:52.996Z,13.65
2023-03-08T00:22:19.772Z,14.48
2023-03-08T00:24:46.883Z,14.07
2023-03-08T00:27:13.444Z,13.73
2023-03-08T00:29:40.055Z,13.38
2023-03-08T00:32:06.952Z,13.43
2023-03-08T00:34:33.572Z,11.88
2023-03-08T00:37:00.120Z,12.88
2023-03-08T00:39:26.691Z,12.85
2023-03-08T00:41:53.406Z,12.07
2023-03-08T00:44:20.096Z,10.85
2023-03-08T00:46:46.798Z,11.60
2023-03-08T00:49:13.486Z,11.30
2023-03-08T00:51:40.073Z,10.73
2023-03-08T00:54:06.769Z,12.60
2023-03-08T00:56:33.355Z,11.57
2023-03-08T00:59:00.251Z,11.93
2023-03-08T01:01:27.136Z,11.60
2023-03-08T01:03:53.753Z,12.27
2023-03-08T01:06:20.425Z,12.43
2023-03-08T01:08:47.111Z,11.68
2023-03-08T01:11:22.717Z,11.50
2023-03-08T01:13:50.632Z,12.43
2023-03-08T01:16:20.509Z,12.00
2023-03-08T01:18:47.320Z,11.75
2023-03-08T01:21:13.967Z,10.98
2023-03-08T01:23:42.714Z,10.35
2023-03-08T01:26:14.844Z,10.05
2023-03-08T01:28:41.903Z,8.73
2023-03-08T01:31:18.115Z,10.30
2023-03-08T01:33:45.633Z,9.00
2023-03-08T01:36:17.963Z,9.43
2023-03-08T01:41:27.142Z,10.10
2023-03-08T01:43:54.477Z,11.57
2023-03-08T01:46:28.553Z,11.82
2023-03-08T01:48:59.665Z,10.93
2023-03-08T01:51:48.034Z,12.43
2023-03-08T01:54:17.771Z,12.35
2023-03-08T01:56:46.557Z,10.43
2023-03-08T01:59:14.542Z,6.90
2023-03-08T02:01:41.952Z,7.68
2023-03-08T02:04:10.276Z,13.50
2023-03-08T02:06:36.907Z,10.20
2023-03-08T02:09:05.288Z,7.47
2023-03-08T02:11:38.742Z,8.73
2023-03-08T02:14:06.251Z,5.78
2023-03-08T02:16:33.081Z,7.05
2023-03-08T02:19:06.712Z,6.38
2023-03-08T02:21:33.420Z,5.43
2023-03-08T02:24:07.526Z,4.97
2023-03-08T02:26:37.193Z,5.07
2023-03-08T02:29:03.826Z,4.25
2023-03-08T02:31:30.538Z,6.20
2023-03-08T02:33:57.188Z,5.38
2023-03-08T02:36:23.833Z,5.30
2023-03-08T02:38:50.530Z,5.80
2023-03-08T02:41:17.295Z,5.30
2023-03-08T02:43:43.851Z,5.95
2023-03-08T02:46:14.553Z,5.18
2023-03-08T02:48:41.179Z,5.93
2023-03-08T02:51:07.861Z,4.78
2023-03-08T02:53:34.483Z,4.57
2023-03-08T02:56:01.141Z,6.15
2023-03-08T02:58:27.792Z,6.85
2023-03-08T03:00:54.398Z,8.18
2023-03-08T03:03:20.962Z,7.80
2023-03-08T03:05:47.549Z,9.45
2023-03-08T03:08:14.267Z,9.18
2023-03-08T03:10:41.743Z,7.70
2023-03-08T03:13:08.760Z,9.30
2023-03-08T03:15:38.306Z,10.48
2023-03-08T03:18:06.057Z,9.80
2023-03-08T03:20:33.761Z,10.50
2023-03-08T03:23:00.350Z,10.30
2023-03-08T03:25:27.243Z,10.27
2023-03-08T03:27:55.375Z,7.00
2023-03-08T03:30:22.080Z,8.77
2023-03-08T03:32:48.679Z,8.25
2023-03-08T03:35:15.308Z,7.53
2023-03-08T03:37:41.961Z,8.70
2023-03-08T03:40:09.443Z,8.70
2023-03-08T03:42:36.136Z,7.78
2023-03-08T03:45:02.882Z,7.20
2023-03-08T03:47:29.492Z,7.50
2023-03-08T03:49:56.095Z,7.13
2023-03-08T03:52:22.746Z,7.70
2023-03-08T03:54:49.350Z,8.30
2023-03-08T03:57:16.003Z,8.43
2023-03-08T03:59:42.580Z,7.85
2023-03-08T04:02:09.292Z,8.80
2023-03-08T04:04:35.925Z,9.30
2023-03-08T04:07:02.796Z,11.45
2023-03-08T04:09:29.411Z,11.13
2023-03-08T04:11:56.485Z,10.25
2023-03-08T04:14:23.165Z,10.50
2023-03-08T04:16:49.736Z,9.77
2023-03-08T04:19:16.359Z,10.18
2023-03-08T04:21:43.075Z,10.43
2023-03-08T04:24:09.839Z,10.25
2023-03-08T04:26:37.834Z,10.85
2023-03-08T04:29:06.213Z,11.32
2023-03-08T04:31:35.169Z,11.32
2023-03-08T04:34:02.838Z,9.18
2023-03-08T04:36:29.538Z,9.68
2023-03-08T04:38:56.402Z,9.55
2023-03-08T04:41:23.491Z,9.57
2023-03-08T04:43:53.128Z,10.48
2023-03-08T04:46:22.090Z,9.02
2023-03-08T04:48:49.286Z,9.32
2023-03-08T04:51:16.758Z,8.05
2023-03-08T04:53:45.393Z,6.63
2023-03-08T04:56:14.188Z,8.20
2023-03-08T04:58:41.460Z,7.88
2023-03-08T05:07:53.936Z,7.28
2023-03-08T05:10:20.553Z,7.00
2023-03-08T05:12:47.241Z,6.82
2023-03-08T05:15:24.783Z,6.88
2023-03-08T05:17:51.671Z,7.32
2023-03-08T05:30:32.495Z,8.43
2023-03-08T05:32:59.421Z,10.80
2023-03-08T05:35:26.207Z,8.68
2023-03-08T05:37:52.782Z,9.07
2023-03-08T05:40:19.535Z,10.70
2023-03-08T05:42:46.187Z,9.23
2023-03-08T05:45:12.850Z,13.15
2023-03-08T05:47:39.512Z,13.75
2023-03-08T05:50:06.480Z,16.13
2023-03-08T05:52:34.678Z,13.77
2023-03-08T05:55:01.600Z,12.75
2023-03-08T05:57:28.626Z,11.20
2023-03-08T05:59:55.250Z,13.13
2023-03-08T06:02:22.090Z,12.50
2023-03-08T06:04:48.856Z,12.07
2023-03-08T06:07:15.521Z,12.50
2023-03-08T06:09:44.966Z,12.50
2023-03-08T06:12:11.778Z,12.85
2023-03-08T06:14:38.378Z,13.75
2023-03-08T06:17:05.014Z,14.48
2023-03-08T06:19:31.708Z,13.30
2023-03-08T06:21:58.402Z,12.48
2023-03-08T06:24:25.088Z,15.63
2023-03-08T06:26:51.792Z,25.50
2023-03-08T06:29:18.374Z,23.75
2023-03-08T06:31:45.028Z,22.85
2023-03-08T06:34:12.914Z,18.73
2023-03-08T06:36:39.778Z,15.90
2023-03-08T06:39:07.195Z,14.80
2023-03-08T06:41:33.930Z,15.75
2023-03-08T06:44:00.568Z,17.40
2023-03-08T06:46:27.613Z,15.43
2023-03-08T06:48:57.533Z,14.93
2023-03-08T06:51:24.118Z,15.98
2023-03-08T06:53:50.704Z,15.15
2023-03-08T06:56:18.030Z,13.98
2023-03-08T06:58:45.109Z,15.10
2023-03-08T07:01:13.876Z,19.58
2023-03-08T07:03:40.694Z,13.95
2023-03-08T07:06:09.655Z,19.17
2023-03-08T07:08:37.679Z,21.25
2023-03-08T07:11:04.487Z,11.95
2023-03-08T07:13:31.079Z,13.93
2023-03-08T07:15:58.125Z,16.27
2023-03-08T07:18:25.057Z,13.48
2023-03-08T07:20:58.691Z,12.18
2023-03-08T07:23:25.891Z,9.65
2023-03-08T07:25:52.527Z,12.05
2023-03-08T07:28:19.210Z,11.20
2023-03-08T07:30:50.492Z,11.73
2023-03-08T07:33:18.213Z,11.40
2023-03-08T07:35:45.154Z,12.48
2023-03-08T07:38:12.275Z,12.07
2023-03-08T07:40:39.238Z,11.98
2023-03-08T07:43:06.367Z,10.65
2023-03-08T07:45:33.189Z,14.32
2023-03-08T07:47:59.810Z,12.38
2023-03-08T07:50:27.309Z,11.10
2023-03-08T07:52:54.005Z,11.23
2023-03-08T07:55:21.482Z,8.75
2023-03-08T07:57:48.124Z,7.35
2023-03-08T08:00:15.000Z,8.50
2023-03-08T08:02:42.283Z,9.05
2023-03-08T08:05:09.393Z,8.40
2023-03-08T08:07:36.162Z,7.70
2023-03-08T08:10:02.854Z,8.23
2023-03-08T08:12:29.442Z,8.32
2023-03-08T08:14:56.272Z,7.65
2023-03-08T08:17:22.947Z,9.80
2023-03-08T08:19:49.678Z,7.50
2023-03-08T08:22:16.324Z,7.35
2023-03-08T08:24:43.171Z,6.85
2023-03-08T08:27:09.805Z,10.50
2023-03-08T08:29:37.641Z,8.27
2023-03-08T08:32:04.884Z,8.55
2023-03-08T08:34:31.678Z,8.35
2023-03-08T08:36:58.333Z,7.78
2023-03-08T08:39:25.021Z,8.40
2023-03-08T08:41:51.708Z,7.82
2023-03-08T08:44:18.351Z,7.93
2023-03-08T08:46:44.963Z,6.93
2023-03-08T08:49:11.569Z,6.55
2023-03-08T08:51:38.314Z,7.05
2023-03-08T08:54:05.104Z,7.13
2023-03-08T08:56:31.824Z,9.15
2023-03-08T08:59:01.585Z,8.75
2023-03-08T09:01:31.792Z,7.93
2023-03-08T09:03:59.563Z,7.60
2023-03-08T09:06:27.526Z,8.38
2023-03-08T09:08:56.814Z,9.05
2023-03-08T09:11:24.489Z,7.97
2023-03-08T09:13:51.357Z,8.15
2023-03-08T09:16:21.005Z,6.82
2023-03-08T09:18:48.141Z,7.22
2023-03-08T09:21:15.842Z,8.10
2023-03-08T09:23:42.869Z,8.13
2023-03-08T09:26:09.818Z,9.35
2023-03-08T09:28:36.978Z,7.57
2023-03-08T09:31:12.162Z,7.90
2023-03-08T09:33:51.945Z,7.40
2023-03-08T09:36:19.586Z,7.03
2023-03-08T09:38:50.464Z,7.68
2023-03-08T09:41:23.223Z,8.75
2023-03-08T09:44:02.059Z,8.32
2023-03-08T09:46:40.838Z,7.60
2023-03-08T09:49:27.433Z,6.95
2023-03-08T09:52:14.048Z,6.57
2023-03-08T09:54:41.070Z,7.13
2023-03-08T09:57:17.008Z,6.90
2023-03-08T09:59:52.752Z,4.85
2023-03-08T10:02:53.396Z,6.40
2023-03-08T10:05:41.069Z,5.35
2023-03-08T10:08:23.880Z,5.18
2023-03-08T10:11:03.475Z,4.95
2023-03-08T10:13:39.980Z,5.55
2023-03-08T10:16:24.795Z,5.28
2023-03-08T10:19:06.977Z,4.35
2023-03-08T10:24:12.216Z,6.18
2023-03-08T10:26:40.469Z,4.20
2023-03-08T10:29:07.114Z,4.22
2023-03-08T10:31:33.863Z,3.70
2023-03-08T10:34:12.842Z,3.17
2023-03-08T10:36:57.457Z,3.70
2023-03-08T10:39:24.089Z,1.95
2023-03-08T10:41:54.473Z,1.77
2023-03-08T10:44:37.036Z,2.97
2023-03-08T10:47:36.547Z,2.47
2023-03-08T10:50:14.079Z,2.35
2023-03-08T10:52:42.198Z,2.25
2023-03-08T10:55:13.218Z,1.60
2023-03-08T10:57:42.951Z,1.73
2023-03-08T11:00:34.607Z,2.28
2023-03-08T11:03:10.502Z,1.90
2023-03-08T11:05:37.382Z,2.53
2023-03-08T11:08:04.852Z,1.92
2023-03-08T11:10:32.400Z,1.10
2023-03-08T11:13:05.826Z,1.80
2023-03-08T11:15:37.439Z,1.77
2023-03-08T11:18:42.798Z,1.45
2023-03-08T11:21:32.501Z,0.90
2023-03-08T11:23:59.147Z,1.50
2023-03-08T11:26:48.704Z,1.30
2023-03-08T11:29:46.570Z,1.50
2023-03-08T11:32:20.865Z,1.38
2023-03-08T11:35:12.414Z,1.23
2023-03-08T11:37:49.254Z,1.00
2023-03-08T11:40:21.863Z,0.85
2023-03-08T11:43:13.292Z,1.00
2023-03-08T11:45:56.060Z,1.27
2023-03-08T11:48:40.967Z,1.35
2023-03-08T11:51:21.134Z,0.90
2023-03-08T11:54:15.989Z,3.80
2023-03-08T11:56:45.348Z,1.50
2023-03-08T11:59:21.116Z,1.38
2023-03-08T12:01:59.159Z,1.00
2023-03-08T12:04:34.506Z,0.93
2023-03-08T12:07:06.152Z,0.90
2023-03-08T12:10:01.998Z,0.90
2023-03-08T12:12:35.067Z,0.90
2023-03-08T12:15:13.855Z,1.10
2023-03-08T12:17:50.571Z,1.52
2023-03-08T12:20:20.239Z,1.55
2023-03-08T12:22:54.768Z,1.10
2023-03-08T12:25:33.184Z,2.10
2023-03-08T12:28:06.396Z,1.15
2023-03-08T12:31:01.858Z,1.42
2023-03-08T12:33:32.377Z,0.95
2023-03-08T12:36:05.675Z,0.77
2023-03-08T12:38:45.751Z,0.80
2023-03-08T12:41:27.649Z,2.00
2023-03-08T12:44:22.178Z,1.40
2023-03-08T12:47:02.851Z,0.60
2023-03-08T12:49:37.383Z,0.90
2023-03-08T12:52:19.389Z,0.93
2023-03-08T12:55:01.517Z,0.98
2023-03-08T12:57:43.036Z,0.70
2023-03-08T13:00:33.457Z,0.63
2023-03-08T13:03:27.332Z,1.00
2023-03-08T13:05:54.130Z,0.88
2023-03-08T13:08:40.027Z,0.73
2023-03-08T13:11:16.135Z,0.98
2023-03-08T13:13:49.732Z,0.60
2023-03-08T13:16:32.654Z,1.00
2023-03-08T13:19:14.747Z,0.93
2023-03-08T13:22:06.931Z,0.70
2023-03-08T13:24:57.251Z,1.27
2023-03-08T13:27:26.858Z,0.90
2023-03-08T13:29:55.008Z,1.02
2023-03-08T13:32:25.076Z,1.13
2023-03-08T13:35:00.269Z,1.00
2023-03-08T13:37:29.107Z,0.70
2023-03-08T13:39:58.185Z,0.70
2023-03-08T13:42:27.098Z,0.85
2023-03-08T13:45:05.893Z,1.10
2023-03-08T13:47:35.167Z,0.95
2023-03-08T13:50:03.006Z,0.77
2023-03-08T13:52:32.857Z,0.80
2023-03-08T13:55:02.398Z,0.90
2023-03-08T13:57:31.947Z,1.02
2023-03-08T14:00:02.284Z,1.40
2023-03-08T14:02:31.347Z,0.82
2023-03-08T14:04:58.904Z,1.02
2023-03-08T14:07:32.316Z,1.60
2023-03-08T14:09:59.651Z,1.13
2023-03-08T14:12:32.961Z,1.40
2023-03-08T14:15:02.598Z,1.35
2023-03-08T14:17:33.542Z,1.10
2023-03-08T14:20:17.142Z,0.90
2023-03-08T14:22:47.597Z,0.80
2023-03-08T14:25:24.550Z,1.00
2023-03-08T14:27:51.866Z,1.10
2023-03-08T14:30:24.817Z,1.13
2023-03-08T14:33:07.018Z,0.85
2023-03-08T14:38:04.017Z,0.85
2023-03-08T14:40:35.715Z,1.13
2023-03-08T14:43:06.407Z,1.00
2023-03-08T14:45:32.982Z,1.30
2023-03-08T14:48:19.966Z,1.02
2023-03-08T14:51:22.154Z,1.13
2023-03-08T14:56:30.784Z,1.23
2023-03-08T14:59:01.213Z,1.08
2023-03-08T15:01:35.709Z,1.25
2023-03-08T15:04:03.303Z,1.40
2023-03-08T15:06:36.283Z,1.45
2023-03-08T15:09:06.288Z,1.35
2023-03-08T15:11:33.045Z,1.40
2023-03-08T15:14:00.296Z,1.30
2023-03-08T15:16:27.453Z,1.48
2023-03-08T15:18:54.170Z,1.58
2023-03-08T15:21:27.161Z,1.27
2023-03-08T15:23:54.412Z,1.10
2023-03-08T15:26:31.868Z,1.27
2023-03-08T15:29:03.277Z,1.08
2023-03-08T15:31:31.629Z,1.05
2023-03-08T15:33:58.622Z,1.20
2023-03-08T15:36:25.483Z,1.65
2023-03-08T15:38:52.365Z,1.38
2023-03-08T15:41:19.022Z,1.00
2023-03-08T15:43:45.831Z,1.27
2023-03-08T15:46:13.948Z,1.45
2023-03-08T15:48:40.811Z,1.13
2023-03-08T15:51:17.245Z,1.40
2023-03-08T15:53:43.924Z,1.73
2023-03-08T15:56:10.552Z,1.20
2023-03-08T15:58:37.141Z,1.15
2023-03-08T16:01:05.541Z,1.60
2023-03-08T16:03:34.911Z,1.45
2023-03-08T16:06:02.611Z,1.60
2023-03-08T16:08:29.719Z,1.60
2023-03-08T16:11:00.291Z,1.27
2023-03-08T16:13:26.975Z,1.85
2023-03-08T16:15:57.287Z,1.65
2023-03-08T16:18:23.872Z,1.55
2023-03-08T16:20:50.689Z,1.92
2023-03-08T16:23:17.342Z,1.88
2023-03-08T16:25:44.070Z,1.83
2023-03-08T16:28:10.833Z,1.75
2023-03-08T16:30:39.358Z,2.55
2023-03-08T16:33:06.155Z,1.73
2023-03-08T16:35:32.777Z,2.03
2023-03-08T16:37:59.356Z,2.42
2023-03-08T16:40:31.134Z,1.65
2023-03-08T16:42:58.280Z,2.15
2023-03-08T16:45:25.167Z,3.53
2023-03-08T16:47:52.212Z,3.25
2023-03-08T16:50:19.022Z,3.13
2023-03-08T16:52:45.920Z,2.85
2023-03-08T16:55:12.569Z,5.05
2023-03-08T16:57:40.380Z,4.47
2023-03-08T17:00:10.401Z,4.35
2023-03-08T17:02:37.438Z,5.45
2023-03-08T17:05:04.908Z,6.20
2023-03-08T17:07:31.516Z,7.50
2023-03-08T17:09:58.533Z,7.38
2023-03-08T17:12:25.373Z,10.43
2023-03-08T17:14:52.502Z,11.82
2023-03-08T17:17:19.115Z,10.93
2023-03-08T17:19:46.411Z,7.25
2023-03-08T17:22:13.184Z,6.05
2023-03-08T17:24:39.825Z,4.85
2023-03-08T17:27:06.497Z,5.70
2023-03-08T17:29:33.104Z,5.63
2023-03-08T17:31:59.813Z,6.75
2023-03-08T17:34:26.525Z,7.75
2023-03-08T17:36:53.602Z,8.50
2023-03-08T17:39:20.736Z,10.23
2023-03-08T17:41:47.774Z,11.27
2023-03-08T17:44:15.014Z,7.28
2023-03-08T17:46:41.772Z,9.00
2023-03-08T17:49:08.694Z,5.82
2023-03-08T17:51:35.342Z,4.88
2023-03-08T17:54:03.234Z,4.75
2023-03-08T17:56:32.041Z,4.25
2023-03-08T17:59:00.761Z,3.17
2023-03-08T18:01:30.005Z,3.47
2023-03-08T18:03:57.860Z,2.72
2023-03-08T18:06:29.012Z,4.25
2023-03-08T18:08:56.878Z,5.00
2023-03-08T18:11:24.507Z,4.07
2023-03-08T18:13:51.502Z,4.75
2023-03-08T18:16:19.877Z,6.63
2023-03-08T18:18:49.573Z,5.68
2023-03-08T18:21:17.955Z,6.30
2023-03-08T18:23:45.386Z,5.97
2023-03-08T18:26:13.855Z,5.65
2023-03-08T18:28:40.842Z,5.47
2023-03-08T18:31:09.320Z,5.38
2023-03-08T18:33:36.730Z,5.47
2023-03-08T18:36:04.398Z,6.75
2023-03-08T18:38:31.559Z,5.88
2023-03-08T18:40:58.677Z,7.60
2023-03-08T18:43:25.427Z,5.60
2023-03-08T18:45:56.659Z,7.85
2023-03-08T18:48:24.460Z,8.43
2023-03-08T18:50:51.891Z,8.32
2023-03-08T18:53:18.583Z,6.78
2023-03-08T18:55:56.516Z,6.05
2023-03-08T18:58:25.158Z,4.15
2023-03-08T19:00:53.002Z,3.08
2023-03-08T19:03:20.225Z,3.28
2023-03-08T19:05:46.972Z,4.03
2023-03-08T19:08:13.637Z,4.38
2023-03-08T19:10:40.379Z,4.95
2023-03-08T19:13:06.980Z,4.82
2023-03-08T19:15:38.186Z,8.32
2023-03-08T19:18:06.875Z,6.13
2023-03-08T19:20:37.976Z,4.22
2023-03-08T19:23:04.933Z,5.32
2023-03-08T19:25:33.407Z,4.60
2023-03-08T19:28:00.138Z,4.35
2023-03-08T19:30:28.557Z,4.82
2023-03-08T19:32:56.493Z,4.53
2023-03-08T19:35:23.411Z,5.90
2023-03-08T19:37:50.089Z,8.93
2023-03-08T19:40:16.930Z,7.57
2023-03-08T19:42:43.674Z,8.60
2023-03-08T19:45:11.136Z,7.80
2023-03-08T19:47:37.798Z,7.05
2023-03-08T19:50:04.723Z,6.03
2023-03-08T19:52:31.387Z,5.70
2023-03-08T19:54:58.770Z,6.43
2023-03-08T19:57:25.586Z,5.88
2023-03-08T19:59:52.366Z,3.67
2023-03-08T20:02:19.216Z,3.75
2023-03-08T20:04:45.878Z,3.90
2023-03-08T20:07:12.638Z,4.28
2023-03-08T20:09:41.530Z,11.23
2023-03-08T20:12:09.068Z,6.78
2023-03-08T20:14:36.712Z,4.38
2023-03-08T20:17:05.312Z,2.53
2023-03-08T20:19:34.117Z,2.80
2023-03-08T20:22:01.233Z,2.80
2023-03-08T20:24:27.980Z,2.72
2023-03-08T20:26:54.584Z,2.80
2023-03-08T20:29:21.345Z,2.30
2023-03-08T20:31:48.444Z,2.30
2023-03-08T20:34:16.072Z,2.33
2023-03-08T20:36:42.826Z,2.42
2023-03-08T20:39:09.511Z,1.80
2023-03-08T20:41:36.126Z,3.35
2023-03-08T20:44:02.962Z,2.25
2023-03-08T20:46:33.303Z,2.20
2023-03-08T20:49:00.779Z,3.22
2023-03-08T20:51:28.344Z,2.45
2023-03-08T20:53:56.598Z,2.45
2023-03-08T20:56:25.438Z,4.13
2023-03-08T20:58:54.792Z,3.30
2023-03-08T21:01:26.524Z,3.05
2023-03-08T21:03:56.026Z,3.70
2023-03-08T21:06:28.426Z,2.65
2023-03-08T21:08:55.295Z,2.05
2023-03-08T21:11:22.644Z,2.17
2023-03-08T21:13:50.330Z,5.05
2023-03-08T21:16:19.705Z,2.40
2023-03-08T21:18:50.954Z,2.10
2023-03-08T21:21:30.358Z,2.15
2023-03-08T21:23:58.929Z,2.08
2023-03-08T21:26:27.284Z,2.78
2023-03-08T21:28:56.724Z,3.13
2023-03-08T21:31:23.701Z,2.28
2023-03-08T21:33:50.850Z,2.33
2023-03-08T21:36:18.403Z,2.95
2023-03-08T21:38:45.549Z,2.10
2023-03-08T21:41:27.683Z,1.70
2023-03-08T21:43:54.454Z,2.15
2023-03-08T21:46:22.132Z,2.15
2023-03-08T21:48:49.506Z,1.75
2023-03-08T21:51:16.775Z,2.13
2023-03-08T21:53:44.215Z,2.15
2023-03-08T21:56:14.086Z,2.15
2023-03-08T21:58:41.255Z,2.47
2023-03-08T22:01:26.923Z,2.03
2023-03-08T22:03:54.610Z,2.03
2023-03-08T22:06:22.695Z,2.08
2023-03-08T22:08:50.183Z,2.75
2023-03-08T22:11:17.998Z,2.58
2023-03-08T22:13:50.183Z,1.80
2023-03-08T22:16:16.920Z,1.98
2023-03-08T22:18:43.771Z,1.70
2023-03-08T22:21:10.526Z,1.98
2023-03-08T22:23:37.139Z,1.98
2023-03-08T22:26:07.164Z,1.90
2023-03-08T22:28:33.752Z,1.77
2023-03-08T22:31:00.395Z,1.85
2023-03-08T22:33:27.132Z,1.67
2023-03-08T22:35:53.850Z,2.22
2023-03-08T22:38:21.057Z,1.73
2023-03-08T22:40:47.791Z,1.75
2023-03-08T22:43:14.670Z,2.15
2023-03-08T22:45:41.382Z,1.92
2023-03-08T22:48:08.597Z,2.38
2023-03-08T22:50:35.280Z,2.00
2023-03-08T22:53:01.939Z,1.83
2023-03-08T22:55:28.649Z,1.75
2023-03-08T22:57:55.222Z,1.80
2023-03-08T23:00:21.884Z,1.67
2023-03-08T23:02:49.142Z,1.88
2023-03-08T23:05:19.171Z,2.50
2023-03-08T23:07:46.152Z,2.40
2023-03-08T23:10:14.377Z,2.45
2023-03-08T23:12:40.999Z,3.40
2023-03-08T23:15:08.872Z,2.78
2023-03-08T23:17:35.579Z,2.35
2023-03-08T23:20:03.983Z,2.50
2023-03-08T23:22:30.579Z,2.45
2023-03-08T23:24:57.250Z,2.25
2023-03-08T23:27:23.841Z,2.60
2023-03-08T23:29:53.607Z,2.63
2023-03-08T23:32:20.662Z,3.20
2023-03-08T23:34:47.531Z,2.20
2023-03-08T23:37:14.235Z,3.28
2023-03-08T23:39:40.783Z,2.28
2023-03-08T23:42:07.443Z,2.53
2023-03-08T23:44:34.137Z,2.45
2023-03-08T23:47:02.371Z,2.45
2023-03-08T23:49:29.060Z,2.72
2023-03-08T23:51:55.708Z,2.67
2023-03-08T23:54:22.344Z,2.88
2023-03-08T23:56:49.025Z,2.08
2023-03-08T23:59:21.467Z,2.15
